sensor_id;sensor_type;location;lat;lon;timestamp;pressure;altitude;pressure_sealevel;temperature;humidity
63339;BME280;47485;51.378;-1.342;2023-05-29T00:00:44;101205.79;;;10.49;27.29
63339;BME280;47485;51.378;-1.342;2023-05-29T00:03:10;101211.04;;;12.15;26.01
63339;BME280;47485;51.378;-1.342;2023-05-29T00:05:37;101209.21;;;11.46;26.38
63339;BME280;47485;51.378;-1.342;2023-05-29T00:08:04;101211.73;;;9.48;27.78
63339;BME280;47485;51.378;-1.342;2023-05-29T00:10:31;101219.69;;;8.48;28.93
63339;BME280;47485;51.378;-1.342;2023-05-29T00:12:57;101215.99;;;9.04;26.65
63339;BME280;47485;51.378;-1.342;2023-05-29T00:15:24;101216.29;;;9.92;26.51
63339;BME280;47485;51.378;-1.342;2023-05-29T00:17:51;101222.16;;;9.23;26.49
63339;BME280;47485;51.378;-1.342;2023-05-29T00:20:17;101227.84;;;6.27;28.15
63339;BME280;47485;51.378;-1.342;2023-05-29T00:22:45;101225.21;;;10.74;25.51
63339;BME280;47485;51.378;-1.342;2023-05-29T00:25:12;101226.77;;;11.02;24.96
63339;BME280;47485;51.378;-1.342;2023-05-29T00:27:38;101225.95;;;10.14;25.10
63339;BME280;47485;51.378;-1.342;2023-05-29T00:30:06;101231.87;;;10.54;25.67
63339;BME280;47485;51.378;-1.342;2023-05-29T00:32:34;101238.11;;;10.97;24.64
63339;BME280;47485;51.378;-1.342;2023-05-29T00:35:00;101234.45;;;9.47;25.37
63339;BME280;47485;51.378;-1.342;2023-05-29T00:37:27;101241.79;;;8.06;26.24
63339;BME280;47485;51.378;-1.342;2023-05-29T00:39:54;101242.07;;;9.87;24.96
63339;BME280;47485;51.378;-1.342;2023-05-29T00:42:21;101245.46;;;10.07;24.89
63339;BME280;47485;51.378;-1.342;2023-05-29T00:44:48;101238.35;;;10.74;24.29
63339;BME280;47485;51.378;-1.342;2023-05-29T00:47:15;101237.29;;;8.07;25.42
63339;BME280;47485;51.378;-1.342;2023-05-29T00:49:43;101234.84;;;8.96;24.62
63339;BME280;47485;51.378;-1.342;2023-05-29T00:52:11;101238.56;;;10.14;24.00
63339;BME280;47485;51.378;-1.342;2023-05-29T00:54:42;101236.57;;;10.69;23.30
63339;BME280;47485;51.378;-1.342;2023-05-29T00:57:12;101235.68;;;8.79;24.01
63339;BME280;47485;51.378;-1.342;2023-05-29T00:59:39;101236.28;;;11.69;23.47
63339;BME280;47485;51.378;-1.342;2023-05-29T01:02:07;101240.07;;;11.33;22.80
63339;BME280;47485;51.378;-1.342;2023-05-29T01:04:34;101243.64;;;11.44;23.25
63339;BME280;47485;51.378;-1.342;2023-05-29T01:07:01;101242.04;;;9.66;24.01
63339;BME280;47485;51.378;-1.342;2023-05-29T01:09:28;101243.40;;;11.63;23.44
63339;BME280;47485;51.378;-1.342;2023-05-29T01:12:22;101245.89;;;10.20;23.69
63339;BME280;47485;51.378;-1.342;2023-05-29T01:15:01;101243.28;;;11.89;23.19
63339;BME280;47485;51.378;-1.342;2023-05-29T01:17:40;101249.66;;;9.47;24.34
63339;BME280;47485;51.378;-1.342;2023-05-29T01:20:20;101247.76;;;10.00;23.52
63339;BME280;47485;51.378;-1.342;2023-05-29T01:23:04;101248.53;;;9.75;24.73
63339;BME280;47485;51.378;-1.342;2023-05-29T01:25:46;101250.11;;;8.02;25.33
63339;BME280;47485;51.378;-1.342;2023-05-29T01:28:20;101251.19;;;10.37;23.76
63339;BME280;47485;51.378;-1.342;2023-05-29T01:30:49;101248.32;;;10.38;23.53
63339;BME280;47485;51.378;-1.342;2023-05-29T01:33:16;101251.99;;;10.89;24.21
63339;BME280;47485;51.378;-1.342;2023-05-29T01:35:44;101250.80;;;10.96;23.78
63339;BME280;47485;51.378;-1.342;2023-05-29T01:38:10;101249.35;;;8.41;24.64
63339;BME280;47485;51.378;-1.342;2023-05-29T01:40:37;101248.25;;;10.52;23.04
63339;BME280;47485;51.378;-1.342;2023-05-29T01:43:05;101248.89;;;9.51;24.48
63339;BME280;47485;51.378;-1.342;2023-05-29T01:45:32;101250.11;;;9.62;24.23
63339;BME280;47485;51.378;-1.342;2023-05-29T01:47:58;101248.31;;;12.51;22.59
63339;BME280;47485;51.378;-1.342;2023-05-29T01:50:26;101249.57;;;11.52;22.63
63339;BME280;47485;51.378;-1.342;2023-05-29T01:52:54;101247.25;;;9.99;23.97
63339;BME280;47485;51.378;-1.342;2023-05-29T01:55:21;101246.23;;;10.76;23.66
63339;BME280;47485;51.378;-1.342;2023-05-29T01:57:49;101249.97;;;8.97;23.93
63339;BME280;47485;51.378;-1.342;2023-05-29T02:00:17;101246.25;;;9.37;24.24
63339;BME280;47485;51.378;-1.342;2023-05-29T02:02:45;101243.89;;;10.40;23.91
63339;BME280;47485;51.378;-1.342;2023-05-29T02:05:12;101247.42;;;10.70;23.87
63339;BME280;47485;51.378;-1.342;2023-05-29T02:07:39;101248.33;;;9.46;23.81
63339;BME280;47485;51.378;-1.342;2023-05-29T02:10:06;101249.29;;;11.47;23.56
63339;BME280;47485;51.378;-1.342;2023-05-29T02:12:33;101242.30;;;12.35;22.97
63339;BME280;47485;51.378;-1.342;2023-05-29T02:15:00;101245.34;;;11.13;23.71
63339;BME280;47485;51.378;-1.342;2023-05-29T02:17:27;101246.63;;;11.08;23.46
63339;BME280;47485;51.378;-1.342;2023-05-29T02:19:53;101247.28;;;11.95;23.28
63339;BME280;47485;51.378;-1.342;2023-05-29T02:22:20;101249.37;;;10.68;23.77
63339;BME280;47485;51.378;-1.342;2023-05-29T02:24:47;101248.05;;;9.41;24.92
63339;BME280;47485;51.378;-1.342;2023-05-29T02:27:14;101253.41;;;6.28;27.77
63339;BME280;47485;51.378;-1.342;2023-05-29T02:29:41;101242.34;;;9.92;25.36
63339;BME280;47485;51.378;-1.342;2023-05-29T02:32:07;101251.62;;;5.68;27.93
63339;BME280;47485;51.378;-1.342;2023-05-29T02:34:35;101246.67;;;9.52;25.89
63339;BME280;47485;51.378;-1.342;2023-05-29T02:37:02;101247.00;;;6.81;26.68
63339;BME280;47485;51.378;-1.342;2023-05-29T02:39:29;101239.46;;;8.36;25.83
63339;BME280;47485;51.378;-1.342;2023-05-29T02:41:55;101239.05;;;9.38;24.57
63339;BME280;47485;51.378;-1.342;2023-05-29T02:44:22;101239.75;;;10.52;24.40
63339;BME280;47485;51.378;-1.342;2023-05-29T02:46:49;101235.43;;;9.34;25.08
63339;BME280;47485;51.378;-1.342;2023-05-29T02:49:15;101232.84;;;8.24;24.81
63339;BME280;47485;51.378;-1.342;2023-05-29T02:51:43;101238.45;;;7.21;26.95
63339;BME280;47485;51.378;-1.342;2023-05-29T02:54:10;101237.21;;;7.21;26.94
63339;BME280;47485;51.378;-1.342;2023-05-29T02:56:37;101239.26;;;8.14;26.19
63339;BME280;47485;51.378;-1.342;2023-05-29T02:59:03;101229.04;;;8.79;25.23
63339;BME280;47485;51.378;-1.342;2023-05-29T03:01:30;101234.64;;;5.30;28.58
63339;BME280;47485;51.378;-1.342;2023-05-29T03:03:57;101232.01;;;7.82;26.45
63339;BME280;47485;51.378;-1.342;2023-05-29T03:06:24;101233.43;;;7.80;27.24
63339;BME280;47485;51.378;-1.342;2023-05-29T03:08:51;101228.58;;;8.32;26.44
63339;BME280;47485;51.378;-1.342;2023-05-29T03:11:18;101228.82;;;8.99;26.30
63339;BME280;47485;51.378;-1.342;2023-05-29T03:13:45;101230.77;;;8.72;26.18
63339;BME280;47485;51.378;-1.342;2023-05-29T03:16:12;101229.17;;;8.24;26.67
63339;BME280;47485;51.378;-1.342;2023-05-29T03:18:38;101224.03;;;9.07;26.06
63339;BME280;47485;51.378;-1.342;2023-05-29T03:21:05;101228.21;;;7.48;26.71
63339;BME280;47485;51.378;-1.342;2023-05-29T03:23:32;101228.48;;;9.07;26.63
63339;BME280;47485;51.378;-1.342;2023-05-29T03:25:59;101227.33;;;8.55;26.43
63339;BME280;47485;51.378;-1.342;2023-05-29T03:28:26;101229.93;;;7.46;27.27
63339;BME280;47485;51.378;-1.342;2023-05-29T03:30:53;101227.45;;;8.24;26.67
63339;BME280;47485;51.378;-1.342;2023-05-29T03:33:20;101227.80;;;7.98;26.80
63339;BME280;47485;51.378;-1.342;2023-05-29T03:35:47;101231.41;;;8.25;26.62
63339;BME280;47485;51.378;-1.342;2023-05-29T03:38:13;101235.40;;;6.42;29.20
63339;BME280;47485;51.378;-1.342;2023-05-29T03:40:40;101237.64;;;8.59;27.43
63339;BME280;47485;51.378;-1.342;2023-05-29T03:43:07;101238.12;;;7.63;26.99
63339;BME280;47485;51.378;-1.342;2023-05-29T03:45:34;101236.81;;;10.16;25.65
63339;BME280;47485;51.378;-1.342;2023-05-29T03:48:02;101246.47;;;7.82;27.47
63339;BME280;47485;51.378;-1.342;2023-05-29T03:50:28;101251.03;;;7.74;28.50
63339;BME280;47485;51.378;-1.342;2023-05-29T03:52:55;101254.98;;;4.29;31.41
63339;BME280;47485;51.378;-1.342;2023-05-29T03:55:22;101254.53;;;6.44;29.73
63339;BME280;47485;51.378;-1.342;2023-05-29T03:57:49;101254.26;;;5.98;28.83
63339;BME280;47485;51.378;-1.342;2023-05-29T04:00:16;101266.07;;;3.23;32.64
63339;BME280;47485;51.378;-1.342;2023-05-29T04:02:43;101262.96;;;6.18;30.27
63339;BME280;47485;51.378;-1.342;2023-05-29T04:05:10;101267.05;;;6.21;30.20
63339;BME280;47485;51.378;-1.342;2023-05-29T04:07:37;101270.14;;;6.07;29.18
63339;BME280;47485;51.378;-1.342;2023-05-29T04:10:05;101268.87;;;7.68;28.29
63339;BME280;47485;51.378;-1.342;2023-05-29T04:12:32;101267.39;;;5.59;28.63
63339;BME280;47485;51.378;-1.342;2023-05-29T04:14:59;101270.14;;;6.17;28.50
63339;BME280;47485;51.378;-1.342;2023-05-29T04:17:26;101270.69;;;7.55;27.24
63339;BME280;47485;51.378;-1.342;2023-05-29T04:19:52;101269.64;;;6.81;27.50
63339;BME280;47485;51.378;-1.342;2023-05-29T04:22:19;101267.15;;;6.88;27.65
63339;BME280;47485;51.378;-1.342;2023-05-29T04:24:46;101269.93;;;8.11;27.42
63339;BME280;47485;51.378;-1.342;2023-05-29T04:27:13;101269.37;;;7.05;27.94
63339;BME280;47485;51.378;-1.342;2023-05-29T04:29:40;101270.25;;;7.78;28.08
63339;BME280;47485;51.378;-1.342;2023-05-29T04:32:08;101271.43;;;6.84;28.40
63339;BME280;47485;51.378;-1.342;2023-05-29T04:34:34;101272.02;;;7.05;27.87
63339;BME280;47485;51.378;-1.342;2023-05-29T04:37:01;101271.44;;;9.69;26.38
63339;BME280;47485;51.378;-1.342;2023-05-29T04:39:28;101274.37;;;8.30;27.02
63339;BME280;47485;51.378;-1.342;2023-05-29T04:41:55;101278.66;;;7.83;26.79
63339;BME280;47485;51.378;-1.342;2023-05-29T04:44:21;101286.07;;;5.48;30.01
63339;BME280;47485;51.378;-1.342;2023-05-29T04:46:48;101283.73;;;7.97;28.00
63339;BME280;47485;51.378;-1.342;2023-05-29T04:49:15;101289.08;;;9.56;26.81
63339;BME280;47485;51.378;-1.342;2023-05-29T04:51:42;101291.27;;;7.81;27.56
63339;BME280;47485;51.378;-1.342;2023-05-29T04:54:10;101292.50;;;6.42;29.24
63339;BME280;47485;51.378;-1.342;2023-05-29T04:56:37;101291.83;;;7.47;29.39
63339;BME280;47485;51.378;-1.342;2023-05-29T04:59:04;101288.59;;;8.97;27.80
63339;BME280;47485;51.378;-1.342;2023-05-29T05:01:31;101289.31;;;8.05;27.49
63339;BME280;47485;51.378;-1.342;2023-05-29T05:03:57;101292.15;;;7.44;28.42
63339;BME280;47485;51.378;-1.342;2023-05-29T05:06:24;101295.46;;;5.75;29.68
63339;BME280;47485;51.378;-1.342;2023-05-29T05:08:51;101294.52;;;7.75;28.36
63339;BME280;47485;51.378;-1.342;2023-05-29T05:11:18;101296.99;;;7.89;28.13
63339;BME280;47485;51.378;-1.342;2023-05-29T05:13:45;101297.26;;;9.73;27.22
63339;BME280;47485;51.378;-1.342;2023-05-29T05:16:12;101298.96;;;7.64;27.04
63339;BME280;47485;51.378;-1.342;2023-05-29T05:18:39;101298.83;;;7.99;28.11
63339;BME280;47485;51.378;-1.342;2023-05-29T05:21:06;101297.37;;;7.14;29.17
63339;BME280;47485;51.378;-1.342;2023-05-29T05:23:33;101302.42;;;5.59;31.45
63339;BME280;47485;51.378;-1.342;2023-05-29T05:26:00;101308.80;;;3.72;33.21
63339;BME280;47485;51.378;-1.342;2023-05-29T05:28:26;101310.23;;;4.39;32.94
63339;BME280;47485;51.378;-1.342;2023-05-29T05:30:53;101311.91;;;5.18;32.50
63339;BME280;47485;51.378;-1.342;2023-05-29T05:33:20;101308.93;;;7.02;31.15
63339;BME280;47485;51.378;-1.342;2023-05-29T05:35:47;101310.97;;;6.60;30.69
63339;BME280;47485;51.378;-1.342;2023-05-29T05:38:14;101310.04;;;7.19;30.19
63339;BME280;47485;51.378;-1.342;2023-05-29T05:40:41;101311.77;;;6.87;31.23
63339;BME280;47485;51.378;-1.342;2023-05-29T05:43:08;101313.61;;;4.09;32.45
63339;BME280;47485;51.378;-1.342;2023-05-29T05:45:35;101308.88;;;8.05;29.34
63339;BME280;47485;51.378;-1.342;2023-05-29T05:48:01;101309.85;;;7.17;29.19
63339;BME280;47485;51.378;-1.342;2023-05-29T05:50:28;101319.96;;;2.11;34.22
63339;BME280;47485;51.378;-1.342;2023-05-29T05:52:55;101310.95;;;8.16;29.74
63339;BME280;47485;51.378;-1.342;2023-05-29T05:55:22;101320.03;;;5.11;32.69
63339;BME280;47485;51.378;-1.342;2023-05-29T05:57:49;101319.09;;;6.77;30.54
63339;BME280;47485;51.378;-1.342;2023-05-29T06:00:16;101325.49;;;5.35;32.69
63339;BME280;47485;51.378;-1.342;2023-05-29T06:02:44;101324.53;;;6.45;31.41
63339;BME280;47485;51.378;-1.342;2023-05-29T06:05:12;101323.60;;;7.35;30.40
63339;BME280;47485;51.378;-1.342;2023-05-29T06:07:39;101324.05;;;6.22;31.40
63339;BME280;47485;51.378;-1.342;2023-05-29T06:10:07;101330.37;;;4.57;33.21
63339;BME280;47485;51.378;-1.342;2023-05-29T06:12:34;101328.74;;;4.87;33.28
63339;BME280;47485;51.378;-1.342;2023-05-29T06:15:02;101328.65;;;5.88;32.85
63339;BME280;47485;51.378;-1.342;2023-05-29T06:17:28;101330.69;;;4.54;33.44
63339;BME280;47485;51.378;-1.342;2023-05-29T06:19:55;101325.93;;;4.03;34.50
63339;BME280;47485;51.378;-1.342;2023-05-29T06:22:22;101326.59;;;5.93;33.50
63339;BME280;47485;51.378;-1.342;2023-05-29T06:24:48;101334.21;;;3.22;34.94
63339;BME280;47485;51.378;-1.342;2023-05-29T06:27:15;101331.71;;;5.22;34.07
63339;BME280;47485;51.378;-1.342;2023-05-29T06:29:42;101330.09;;;7.15;32.22
63339;BME280;47485;51.378;-1.342;2023-05-29T06:32:08;101337.08;;;5.55;32.87
63339;BME280;47485;51.378;-1.342;2023-05-29T06:34:35;101339.29;;;4.61;33.56
63339;BME280;47485;51.378;-1.342;2023-05-29T06:37:02;101332.71;;;7.10;31.89
63339;BME280;47485;51.378;-1.342;2023-05-29T06:39:29;101334.61;;;6.35;31.98
63339;BME280;47485;51.378;-1.342;2023-05-29T06:41:56;101340.27;;;3.79;34.76
63339;BME280;47485;51.378;-1.342;2023-05-29T06:44:22;101338.68;;;5.86;33.54
63339;BME280;47485;51.378;-1.342;2023-05-29T06:46:49;101340.42;;;4.01;33.69
63339;BME280;47485;51.378;-1.342;2023-05-29T06:49:15;101331.49;;;6.70;32.40
63339;BME280;47485;51.378;-1.342;2023-05-29T06:51:44;101331.72;;;6.50;30.47
63339;BME280;47485;51.378;-1.342;2023-05-29T06:54:11;101335.48;;;6.14;30.98
63339;BME280;47485;51.378;-1.342;2023-05-29T06:56:37;101329.46;;;7.62;29.67
63339;BME280;47485;51.378;-1.342;2023-05-29T06:59:04;101330.09;;;5.04;30.80
63339;BME280;47485;51.378;-1.342;2023-05-29T07:01:31;101331.23;;;7.15;29.15
63339;BME280;47485;51.378;-1.342;2023-05-29T07:03:57;101329.00;;;8.16;28.30
63339;BME280;47485;51.378;-1.342;2023-05-29T07:06:24;101333.78;;;9.19;27.05
63339;BME280;47485;51.378;-1.342;2023-05-29T07:08:51;101332.46;;;6.59;29.62
63339;BME280;47485;51.378;-1.342;2023-05-29T07:11:18;101330.71;;;7.71;28.31
63339;BME280;47485;51.378;-1.342;2023-05-29T07:13:45;101323.40;;;9.47;26.97
63339;BME280;47485;51.378;-1.342;2023-05-29T07:16:12;101327.24;;;8.37;27.80
63339;BME280;47485;51.378;-1.342;2023-05-29T07:18:39;101322.61;;;7.76;27.70
63339;BME280;47485;51.378;-1.342;2023-05-29T07:21:06;101321.44;;;8.10;28.26
63339;BME280;47485;51.378;-1.342;2023-05-29T07:23:33;101320.14;;;8.64;27.55
63339;BME280;47485;51.378;-1.342;2023-05-29T07:25:59;101323.35;;;8.57;28.25
63339;BME280;47485;51.378;-1.342;2023-05-29T07:28:26;101326.86;;;10.03;26.08
63339;BME280;47485;51.378;-1.342;2023-05-29T07:30:53;101319.85;;;10.12;26.22
63339;BME280;47485;51.378;-1.342;2023-05-29T07:33:21;101314.69;;;9.69;25.38
63339;BME280;47485;51.378;-1.342;2023-05-29T07:35:47;101316.07;;;9.22;26.86
63339;BME280;47485;51.378;-1.342;2023-05-29T07:38:14;101313.18;;;10.67;26.99
63339;BME280;47485;51.378;-1.342;2023-05-29T07:40:41;101319.03;;;8.06;28.36
63339;BME280;47485;51.378;-1.342;2023-05-29T07:43:07;101321.42;;;7.57;27.90
63339;BME280;47485;51.378;-1.342;2023-05-29T07:45:34;101321.22;;;7.95;27.97
63339;BME280;47485;51.378;-1.342;2023-05-29T07:48:01;101323.97;;;8.47;27.01
63339;BME280;47485;51.378;-1.342;2023-05-29T07:50:28;101321.49;;;7.17;27.59
63339;BME280;47485;51.378;-1.342;2023-05-29T07:52:55;101323.73;;;5.36;29.36
63339;BME280;47485;51.378;-1.342;2023-05-29T07:55:21;101326.37;;;7.18;27.45
63339;BME280;47485;51.378;-1.342;2023-05-29T07:57:48;101329.01;;;4.87;27.74
63339;BME280;47485;51.378;-1.342;2023-05-29T08:00:15;101324.08;;;8.40;25.86
63339;BME280;47485;51.378;-1.342;2023-05-29T08:02:42;101319.30;;;5.68;28.01
63339;BME280;47485;51.378;-1.342;2023-05-29T08:05:09;101327.64;;;9.49;25.38
63339;BME280;47485;51.378;-1.342;2023-05-29T08:07:36;101328.29;;;5.87;27.09
63339;BME280;47485;51.378;-1.342;2023-05-29T08:10:04;101338.19;;;6.88;26.85
63339;BME280;47485;51.378;-1.342;2023-05-29T08:12:31;101334.29;;;9.03;25.63
63339;BME280;47485;51.378;-1.342;2023-05-29T08:14:58;101339.59;;;9.70;24.84
63339;BME280;47485;51.378;-1.342;2023-05-29T08:17:24;101333.02;;;10.39;23.71
63339;BME280;47485;51.378;-1.342;2023-05-29T08:19:51;101325.99;;;10.74;23.79
63339;BME280;47485;51.378;-1.342;2023-05-29T08:22:17;101331.93;;;10.20;23.58
63339;BME280;47485;51.378;-1.342;2023-05-29T08:24:45;101335.92;;;12.45;23.57
63339;BME280;47485;51.378;-1.342;2023-05-29T08:27:12;101343.53;;;7.75;24.67
63339;BME280;47485;51.378;-1.342;2023-05-29T08:29:39;101340.20;;;7.19;25.01
63339;BME280;47485;51.378;-1.342;2023-05-29T08:32:05;101334.36;;;6.80;26.05
63339;BME280;47485;51.378;-1.342;2023-05-29T08:34:32;101330.73;;;7.34;25.63
63339;BME280;47485;51.378;-1.342;2023-05-29T08:36:59;101325.19;;;11.80;23.73
63339;BME280;47485;51.378;-1.342;2023-05-29T08:39:26;101328.32;;;9.47;23.70
63339;BME280;47485;51.378;-1.342;2023-05-29T08:41:59;101331.03;;;10.52;22.65
63339;BME280;47485;51.378;-1.342;2023-05-29T08:44:26;101330.79;;;12.79;22.37
63339;BME280;47485;51.378;-1.342;2023-05-29T08:46:56;101336.42;;;8.84;24.15
63339;BME280;47485;51.378;-1.342;2023-05-29T08:49:28;101329.90;;;9.05;24.34
63339;BME280;47485;51.378;-1.342;2023-05-29T08:52:00;101329.66;;;7.92;25.05
63339;BME280;47485;51.378;-1.342;2023-05-29T08:54:31;101328.29;;;8.72;24.73
63339;BME280;47485;51.378;-1.342;2023-05-29T08:56:58;101330.03;;;7.59;25.65
63339;BME280;47485;51.378;-1.342;2023-05-29T08:59:25;101328.95;;;9.02;24.54
63339;BME280;47485;51.378;-1.342;2023-05-29T09:01:53;101330.88;;;10.09;24.28
63339;BME280;47485;51.378;-1.342;2023-05-29T09:04:19;101326.91;;;9.46;23.38
63339;BME280;47485;51.378;-1.342;2023-05-29T09:06:46;101324.44;;;9.27;24.44
63339;BME280;47485;51.378;-1.342;2023-05-29T09:09:13;101320.57;;;10.42;22.33
63339;BME280;47485;51.378;-1.342;2023-05-29T09:11:40;101324.09;;;11.09;21.49
63339;BME280;47485;51.378;-1.342;2023-05-29T09:14:11;101329.13;;;9.73;23.22
63339;BME280;47485;51.378;-1.342;2023-05-29T09:16:41;101326.19;;;13.01;21.77
63339;BME280;47485;51.378;-1.342;2023-05-29T09:19:08;101320.46;;;11.71;22.39
63339;BME280;47485;51.378;-1.342;2023-05-29T09:21:35;101322.48;;;9.94;22.85
63339;BME280;47485;51.378;-1.342;2023-05-29T09:24:04;101319.22;;;10.80;23.40
63339;BME280;47485;51.378;-1.342;2023-05-29T09:26:31;101319.68;;;10.85;22.72
63339;BME280;47485;51.378;-1.342;2023-05-29T09:28:57;101316.06;;;9.95;22.61
63339;BME280;47485;51.378;-1.342;2023-05-29T09:31:24;101321.44;;;12.92;21.60
63339;BME280;47485;51.378;-1.342;2023-05-29T09:33:50;101327.58;;;10.17;22.82
63339;BME280;47485;51.378;-1.342;2023-05-29T09:36:21;101335.31;;;10.71;23.00
63339;BME280;47485;51.378;-1.342;2023-05-29T09:38:48;101333.70;;;11.58;22.81
63339;BME280;47485;51.378;-1.342;2023-05-29T09:41:20;101337.65;;;12.42;23.01
63339;BME280;47485;51.378;-1.342;2023-05-29T09:43:48;101339.73;;;12.37;21.59
63339;BME280;47485;51.378;-1.342;2023-05-29T09:46:15;101344.18;;;11.73;21.90
63339;BME280;47485;51.378;-1.342;2023-05-29T09:48:43;101340.77;;;9.93;23.90
63339;BME280;47485;51.378;-1.342;2023-05-29T09:51:19;101343.43;;;9.23;24.43
63339;BME280;47485;51.378;-1.342;2023-05-29T09:53:46;101340.96;;;12.28;21.83
63339;BME280;47485;51.378;-1.342;2023-05-29T09:56:13;101340.35;;;13.55;22.36
63339;BME280;47485;51.378;-1.342;2023-05-29T09:58:40;101340.36;;;13.45;22.05
63339;BME280;47485;51.378;-1.342;2023-05-29T10:01:09;101342.91;;;12.79;22.68
63339;BME280;47485;51.378;-1.342;2023-05-29T10:03:37;101341.19;;;12.07;23.20
63339;BME280;47485;51.378;-1.342;2023-05-29T10:06:04;101339.29;;;9.28;24.82
63339;BME280;47485;51.378;-1.342;2023-05-29T10:08:34;101333.66;;;13.18;21.50
63339;BME280;47485;51.378;-1.342;2023-05-29T10:11:03;101331.06;;;12.97;22.87
63339;BME280;47485;51.378;-1.342;2023-05-29T10:13:35;101332.85;;;11.43;22.40
63339;BME280;47485;51.378;-1.342;2023-05-29T10:16:04;101328.42;;;12.96;21.89
63339;BME280;47485;51.378;-1.342;2023-05-29T10:18:37;101325.13;;;10.62;23.56
63339;BME280;47485;51.378;-1.342;2023-05-29T10:21:07;101327.20;;;9.58;23.89
63339;BME280;47485;51.378;-1.342;2023-05-29T10:23:36;101329.02;;;13.28;22.57
63339;BME280;47485;51.378;-1.342;2023-05-29T10:26:09;101332.71;;;13.24;21.70
63339;BME280;47485;51.378;-1.342;2023-05-29T10:28:40;101336.88;;;9.82;23.78
63339;BME280;47485;51.378;-1.342;2023-05-29T10:31:17;101343.14;;;9.85;24.90
63339;BME280;47485;51.378;-1.342;2023-05-29T10:33:56;101334.90;;;12.46;21.91
63339;BME280;47485;51.378;-1.342;2023-05-29T10:36:32;101337.61;;;11.72;22.85
63339;BME280;47485;51.378;-1.342;2023-05-29T10:39:02;101330.19;;;12.05;21.32
63339;BME280;47485;51.378;-1.342;2023-05-29T10:41:30;101333.14;;;12.40;21.78
63339;BME280;47485;51.378;-1.342;2023-05-29T10:43:58;101334.49;;;12.36;21.72
63339;BME280;47485;51.378;-1.342;2023-05-29T10:47:01;101331.62;;;11.90;21.37
63339;BME280;47485;51.378;-1.342;2023-05-29T10:49:29;101333.20;;;11.89;21.90
63339;BME280;47485;51.378;-1.342;2023-05-29T10:51:57;101319.29;;;13.48;20.48
63339;BME280;47485;51.378;-1.342;2023-05-29T10:54:25;101316.94;;;12.41;22.33
63339;BME280;47485;51.378;-1.342;2023-05-29T10:56:55;101316.08;;;11.84;21.80
63339;BME280;47485;51.378;-1.342;2023-05-29T10:59:22;101319.23;;;11.96;21.61
63339;BME280;47485;51.378;-1.342;2023-05-29T11:01:51;101316.18;;;12.68;21.94
63339;BME280;47485;51.378;-1.342;2023-05-29T11:04:26;101322.15;;;8.17;24.25
63339;BME280;47485;51.378;-1.342;2023-05-29T11:06:53;101322.17;;;11.12;22.49
63339;BME280;47485;51.378;-1.342;2023-05-29T11:09:29;101324.18;;;12.74;21.71
63339;BME280;47485;51.378;-1.342;2023-05-29T11:12:13;101324.19;;;12.38;22.54
63339;BME280;47485;51.378;-1.342;2023-05-29T11:14:48;101323.53;;;10.97;23.88
63339;BME280;47485;51.378;-1.342;2023-05-29T11:17:51;101324.21;;;11.83;23.67
63339;BME280;47485;51.378;-1.342;2023-05-29T11:20:37;101311.77;;;12.48;21.99
63339;BME280;47485;51.378;-1.342;2023-05-29T11:23:14;101318.05;;;11.96;23.05
63339;BME280;47485;51.378;-1.342;2023-05-29T11:25:43;101318.61;;;9.83;24.30
63339;BME280;47485;51.378;-1.342;2023-05-29T11:28:11;101322.76;;;13.04;22.96
63339;BME280;47485;51.378;-1.342;2023-05-29T11:30:46;101314.27;;;11.96;21.99
63339;BME280;47485;51.378;-1.342;2023-05-29T11:33:22;101321.75;;;9.23;24.59
63339;BME280;47485;51.378;-1.342;2023-05-29T11:35:55;101311.24;;;11.46;22.46
63339;BME280;47485;51.378;-1.342;2023-05-29T11:38:22;101312.40;;;13.27;21.93
63339;BME280;47485;51.378;-1.342;2023-05-29T11:40:49;101304.46;;;12.88;22.35
63339;BME280;47485;51.378;-1.342;2023-05-29T11:43:16;101304.12;;;13.00;22.58
63339;BME280;47485;51.378;-1.342;2023-05-29T11:45:43;101303.38;;;14.59;20.64
63339;BME280;47485;51.378;-1.342;2023-05-29T11:48:10;101304.78;;;14.34;21.22
63339;BME280;47485;51.378;-1.342;2023-05-29T11:50:37;101303.42;;;11.72;20.94
63339;BME280;47485;51.378;-1.342;2023-05-29T11:53:06;101303.11;;;15.39;20.91
63339;BME280;47485;51.378;-1.342;2023-05-29T11:55:33;101311.12;;;14.20;21.75
63339;BME280;47485;51.378;-1.342;2023-05-29T11:58:02;101306.25;;;11.49;22.62
63339;BME280;47485;51.378;-1.342;2023-05-29T12:00:31;101305.12;;;10.47;22.17
63339;BME280;47485;51.378;-1.342;2023-05-29T12:02:59;101302.07;;;11.54;22.25
63339;BME280;47485;51.378;-1.342;2023-05-29T12:05:26;101295.02;;;15.03;19.74
63339;BME280;47485;51.378;-1.342;2023-05-29T12:07:54;101299.44;;;15.41;19.38
63339;BME280;47485;51.378;-1.342;2023-05-29T12:10:21;101298.60;;;11.15;22.47
63339;BME280;47485;51.378;-1.342;2023-05-29T12:12:48;101296.66;;;10.89;21.82
63339;BME280;47485;51.378;-1.342;2023-05-29T12:15:16;101285.78;;;14.52;19.92
63339;BME280;47485;51.378;-1.342;2023-05-29T12:17:44;101297.62;;;13.41;21.47
63339;BME280;47485;51.378;-1.342;2023-05-29T12:20:12;101295.52;;;11.92;22.59
63339;BME280;47485;51.378;-1.342;2023-05-29T12:22:40;101285.36;;;11.61;22.09
63339;BME280;47485;51.378;-1.342;2023-05-29T12:25:07;101284.32;;;11.18;21.96
63339;BME280;47485;51.378;-1.342;2023-05-29T12:27:37;101293.15;;;11.09;23.23
63339;BME280;47485;51.378;-1.342;2023-05-29T12:30:06;101288.88;;;11.96;22.26
63339;BME280;47485;51.378;-1.342;2023-05-29T12:32:36;101287.99;;;8.13;24.80
63339;BME280;47485;51.378;-1.342;2023-05-29T12:35:12;101290.46;;;13.71;20.11
63339;BME280;47485;51.378;-1.342;2023-05-29T12:37:44;101286.79;;;18.11;18.25
63339;BME280;47485;51.378;-1.342;2023-05-29T12:40:15;101285.80;;;13.94;19.81
63339;BME280;47485;51.378;-1.342;2023-05-29T12:42:42;101280.21;;;13.51;20.40
63339;BME280;47485;51.378;-1.342;2023-05-29T12:45:10;101281.53;;;13.19;20.09
63339;BME280;47485;51.378;-1.342;2023-05-29T12:47:44;101273.16;;;16.53;19.94
63339;BME280;47485;51.378;-1.342;2023-05-29T12:50:27;101275.88;;;14.39;19.80